Time;durP1;ratioP1;P1;durP2;ratioP2;P2;SDS_P1;SDS_P2;PMS_P1;PMS_P2;Temp;Humidity;BMP_temperature;BMP_pressure;BME280_temperature;BME280_humidity;BME280_pressure;Samples;Min_cycle;Max_cycle;Signal;HPM_P1;HPM_P2
2022/06/19 06:16:57;;;;;;;;;;;;;;;26.39;100.00;98489.97;5560481;23;19972;-71
2022/06/19 06:19:25;;;;;;;;;;;;;;;26.39;100.00;98498.56;4828008;29;19954;-72
2022/06/19 06:21:52;;;;;;;;;;;;;;;26.19;100.00;98497.78;4811816;29;19965;-72
2022/06/19 06:24:19;;;;;;;;;;;;;;;26.16;100.00;98493.81;4814340;29;20236;-71
2022/06/19 06:26:46;;;;;;;;;;;;;;;26.29;100.00;98487.75;4828304;29;19955;-72
2022/06/19 06:29:16;;;;;;;;;;;;;;;26.24;100.00;98491.34;4827539;29;19964;-72
2022/06/19 06:31:43;;;;;;;;;;;;;;;26.44;100.00;98488.47;4827244;29;20324;-72
2022/06/19 06:34:10;;;;;;;;;;;;;;;26.52;100.00;98487.56;4827622;29;19948;-72
2022/06/19 06:36:38;;;;;;;;;;;;;;;26.68;100.00;98486.97;4798512;29;19948;-72
2022/06/19 06:39:05;;;;;;;;;;;;;;;26.59;100.00;98481.38;4819323;29;19947;-71
2022/06/19 06:41:32;;;;;;;;;;;;;;;26.48;100.00;98484.09;4820470;29;20348;-70
2022/06/19 06:43:59;;;;;;;;;;;;;;;26.47;100.00;98485.41;4840218;29;19956;-70
2022/06/19 06:46:26;;;;;;;;;;;;;;;26.40;100.00;98487.91;4831515;29;19956;-70
2022/06/19 06:48:55;;;;;;;;;;;;;;;26.27;100.00;98482.50;4832289;29;19947;-70
2022/06/19 06:51:24;;;;;;;;;;;;;;;26.34;100.00;98484.94;4841614;29;20356;-70
2022/06/19 06:53:52;;;;;;;;;;;;;;;26.42;100.00;98480.38;4831514;29;20240;-70
2022/06/19 06:56:20;;;;;;;;;;;;;;;26.56;100.00;98485.25;4830681;29;19949;-70
2022/06/19 06:58:47;;;;;;;;;;;;;;;26.52;100.00;98478.16;4831848;29;19955;-70
2022/06/19 07:01:16;;;;;;;;;;;;;;;26.52;100.00;98476.06;4830285;29;19963;-71
2022/06/19 07:03:44;;;;;;;;;;;;;;;26.67;100.00;98476.00;4830676;29;19948;-70
2022/06/19 07:06:11;;;;;;;;;;;;;;;26.80;100.00;98467.06;4827586;29;20334;-70
2022/06/19 07:08:39;;;;;;;;;;;;;;;26.75;100.00;98468.56;4830562;29;19952;-70
2022/06/19 07:11:08;;;;;;;;;;;;;;;26.64;100.00;98472.06;4830181;29;19952;-70
2022/06/19 07:13:38;;;;;;;;;;;;;;;26.82;100.00;98470.22;4830662;29;20247;-70
2022/06/19 07:16:06;;;;;;;;;;;;;;;26.94;100.00;98472.72;4830659;29;19948;-71
2022/06/19 07:18:33;;;;;;;;;;;;;;;27.02;100.00;98470.97;4830339;29;19971;-70
2022/06/19 07:21:01;;;;;;;;;;;;;;;27.13;100.00;98473.97;4823709;29;19951;-70
2022/06/19 07:23:30;;;;;;;;;;;;;;;27.08;100.00;98473.91;4822403;29;19960;-70
2022/06/19 07:25:57;;;;;;;;;;;;;;;27.05;100.00;98466.28;4814899;29;20239;-70
2022/06/19 07:28:25;;;;;;;;;;;;;;;26.90;100.00;98477.09;4830599;29;19947;-70
2022/06/19 07:30:52;;;;;;;;;;;;;;;27.25;100.00;98469.13;4830637;29;19979;-70
2022/06/19 07:33:19;;;;;;;;;;;;;;;27.31;100.00;98470.75;4830569;29;19956;-70
2022/06/19 07:35:47;;;;;;;;;;;;;;;27.40;100.00;98469.81;4829747;29;19951;-70
2022/06/19 07:38:15;;;;;;;;;;;;;;;27.45;100.00;98466.22;4830461;29;19955;-70
2022/06/19 07:40:42;;;;;;;;;;;;;;;27.25;100.00;98466.25;4830515;29;20336;-70
2022/06/19 07:43:12;;;;;;;;;;;;;;;27.30;100.00;98469.19;4830958;29;19965;-70
2022/06/19 07:45:40;;;;;;;;;;;;;;;27.28;100.00;98463.16;4830434;29;19952;-70
2022/06/19 07:50:57;;;;;;;;;;;;;;;27.54;100.00;98460.28;4827378;29;19955;-70
2022/06/19 07:53:24;;;;;;;;;;;;;;;27.57;100.00;98462.16;4829477;29;19950;-70
2022/06/19 07:55:51;;;;;;;;;;;;;;;27.61;100.00;98462.69;4830279;29;19956;-70
2022/06/19 07:58:19;;;;;;;;;;;;;;;27.64;100.00;98458.81;4829650;29;19954;-70
2022/06/19 08:00:46;;;;;;;;;;;;;;;27.68;100.00;98462.22;4830000;29;19955;-71
2022/06/19 08:03:13;;;;;;;;;;;;;;;27.63;100.00;98459.34;4829515;29;19969;-70
2022/06/19 08:05:43;;;;;;;;;;;;;;;27.74;100.00;98453.66;4814371;29;19952;-70
2022/06/19 08:08:18;;;;;;;;;;;;;;;27.70;100.00;98453.91;4830294;29;19956;-71
2022/06/19 08:10:46;;;;;;;;;;;;;;;27.81;100.00;98456.06;4829713;29;19953;-70
2022/06/19 08:13:14;;;;;;;;;;;;;;;27.74;100.00;98463.06;4829748;29;19954;-71
2022/06/19 08:15:41;;;;;;;;;;;;;;;27.78;100.00;98457.09;4830947;29;19959;-71
2022/06/19 08:18:09;;;;;;;;;;;;;;;27.76;100.00;98463.34;4837359;29;19974;-70
2022/06/19 08:20:36;;;;;;;;;;;;;;;27.81;100.00;98465.47;4838172;29;20270;-70
2022/06/19 08:23:05;;;;;;;;;;;;;;;27.69;100.00;98463.03;4838672;29;19967;-70
2022/06/19 08:25:32;;;;;;;;;;;;;;;27.53;100.00;98472.28;4832192;29;19951;-71
2022/06/19 08:28:00;;;;;;;;;;;;;;;27.61;100.00;98459.81;4829895;29;20260;-70
2022/06/19 08:30:30;;;;;;;;;;;;;;;27.71;100.00;98463.28;4829017;29;19949;-71
2022/06/19 08:33:02;;;;;;;;;;;;;;;27.79;100.00;98465.22;4829992;29;19949;-70
2022/06/19 08:35:31;;;;;;;;;;;;;;;27.90;100.00;98467.38;4828858;29;20342;-70
2022/06/19 08:38:00;;;;;;;;;;;;;;;27.81;100.00;98465.47;4829333;29;20327;-70
2022/06/19 08:40:40;;;;;;;;;;;;;;;27.74;100.00;98465.94;4828612;29;20233;-71
2022/06/19 08:43:22;;;;;;;;;;;;;;;27.88;100.00;98461.34;4829365;29;19968;-71
2022/06/19 08:45:51;;;;;;;;;;;;;;;27.69;100.00;98469.56;4829217;29;19952;-71
2022/06/19 08:48:18;;;;;;;;;;;;;;;27.85;100.00;98465.25;4833351;29;19948;-71
2022/06/19 08:50:54;;;;;;;;;;;;;;;27.87;100.00;98459.78;4826627;29;19955;-71
2022/06/19 08:53:43;;;;;;;;;;;;;;;27.80;100.00;98457.38;4828675;29;19955;-71
2022/06/19 08:56:13;;;;;;;;;;;;;;;27.67;97.08;98466.41;4828524;29;19955;-69
2022/06/19 08:58:59;;;;;;;;;;;;;;;27.66;100.00;98459.09;4828702;29;19952;-70
2022/06/19 09:01:29;;;;;;;;;;;;;;;27.91;100.00;98461.13;4821565;29;19959;-70
2022/06/19 09:07:11;;;;;;;;;;;;;;;27.82;100.00;98457.66;4826652;29;19955;-71
2022/06/19 09:09:55;;;;;;;;;;;;;;;27.96;98.79;98465.31;4827612;29;19952;-71
2022/06/19 09:12:41;;;;;;;;;;;;;;;27.97;94.72;98455.41;4827675;29;19957;-71
2022/06/19 09:15:08;;;;;;;;;;;;;;;28.05;93.41;98461.50;4826934;29;19951;-71
2022/06/19 09:17:46;;;;;;;;;;;;;;;28.00;100.00;98460.94;4827633;29;19974;-71
2022/06/19 09:20:42;;;;;;;;;;;;;;;27.97;97.62;98466.91;4827334;29;20317;-70
2022/06/19 09:23:12;;;;;;;;;;;;;;;28.00;100.00;98463.81;4764591;29;19976;-70
2022/06/19 09:25:52;;;;;;;;;;;;;;;28.17;100.00;98458.16;4828587;29;19953;-70
2022/06/19 09:28:22;;;;;;;;;;;;;;;28.20;100.00;98448.53;4829023;29;19949;-70
2022/06/19 09:30:54;;;;;;;;;;;;;;;28.02;95.27;98463.31;4828711;29;19950;-70
2022/06/19 09:33:29;;;;;;;;;;;;;;;28.13;93.01;98469.13;4821624;29;20453;-71
2022/06/19 09:36:10;;;;;;;;;;;;;;;28.31;100.00;98450.69;4822125;29;20272;-70
2022/06/19 09:38:44;;;;;;;;;;;;;;;28.33;90.70;98450.94;4829354;29;19950;-70
2022/06/19 09:41:14;;;;;;;;;;;;;;;28.48;91.67;98463.06;4827429;29;20457;-70
2022/06/19 09:43:47;;;;;;;;;;;;;;;28.32;87.82;98458.00;4827127;29;19971;-70
2022/06/19 09:46:18;;;;;;;;;;;;;;;28.25;92.64;98459.28;4828963;29;19958;-70
2022/06/19 09:48:48;;;;;;;;;;;;;;;28.23;94.04;98461.09;4838475;29;19951;-70
2022/06/19 09:51:33;;;;;;;;;;;;;;;28.32;99.04;98460.88;4827160;29;19955;-70
2022/06/19 09:54:06;;;;;;;;;;;;;;;28.35;100.00;98457.75;4825204;29;19953;-70
2022/06/19 09:56:42;;;;;;;;;;;;;;;28.23;90.23;98455.34;4822080;29;20218;-70
2022/06/19 09:59:12;;;;;;;;;;;;;;;28.41;100.00;98452.06;4821567;29;19949;-70
2022/06/19 10:01:41;;;;;;;;;;;;;;;28.50;100.00;98446.88;4827039;29;19955;-70
2022/06/19 10:04:14;;;;;;;;;;;;;;;28.59;99.65;98445.84;4824642;29;19990;-70
2022/06/19 10:06:56;;;;;;;;;;;;;;;28.74;90.33;98449.34;4828608;29;20381;-70
2022/06/19 10:09:26;;;;;;;;;;;;;;;28.68;92.58;98448.53;4827337;29;19947;-70
2022/06/19 10:11:56;;;;;;;;;;;;;;;28.63;96.41;98447.19;4811994;29;19960;-70
2022/06/19 10:14:38;;;;;;;;;;;;;;;28.74;100.00;98432.06;4830640;29;19949;-70
2022/06/19 10:17:22;;;;;;;;;;;;;;;28.66;91.07;98441.72;4829619;29;20258;-70
2022/06/19 10:19:52;;;;;;;;;;;;;;;28.57;93.11;98428.31;4832242;29;20320;-70
2022/06/19 10:22:23;;;;;;;;;;;;;;;28.61;88.89;98437.53;4831350;29;19954;-69
2022/06/19 10:25:09;;;;;;;;;;;;;;;28.68;88.84;98434.16;4832053;29;20312;-69
2022/06/19 10:27:55;;;;;;;;;;;;;;;28.69;91.92;98426.28;4830703;29;19982;-70
2022/06/19 10:30:25;;;;;;;;;;;;;;;28.86;91.51;98413.53;4829799;29;20215;-70
2022/06/19 10:33:11;;;;;;;;;;;;;;;28.91;99.65;98407.00;4830719;29;19952;-70
2022/06/19 10:35:57;;;;;;;;;;;;;;;28.77;89.35;98407.22;4833170;29;19960;-70
2022/06/19 10:38:24;;;;;;;;;;;;;;;29.01;87.41;98405.44;4830053;29;19949;-69
2022/06/19 10:41:00;;;;;;;;;;;;;;;29.00;94.95;98412.50;4830215;29;19961;-69
2022/06/19 10:43:42;;;;;;;;;;;;;;;29.22;87.27;98412.56;4830063;29;19964;-69
2022/06/19 10:46:11;;;;;;;;;;;;;;;29.29;87.19;98402.66;4829093;29;19956;-69
2022/06/19 10:48:48;;;;;;;;;;;;;;;29.31;88.57;98407.88;4829592;29;19958;-69
2022/06/19 10:51:18;;;;;;;;;;;;;;;29.28;84.97;98403.94;4831115;29;19956;-69
2022/06/19 10:53:46;;;;;;;;;;;;;;;29.41;79.59;98412.09;4830285;29;19955;-69
2022/06/19 10:56:19;;;;;;;;;;;;;;;29.47;77.81;98404.22;4829767;29;19959;-69
2022/06/19 10:58:46;;;;;;;;;;;;;;;29.42;84.92;98393.50;4830083;29;19949;-71
2022/06/19 11:04:06;;;;;;;;;;;;;;;29.49;82.94;98398.72;4829546;29;19950;-73
2022/06/19 11:04:07;;;;;;;;;;;;;;;29.58;78.30;98392.69;4826254;29;19973;-71
2022/06/19 11:06:37;;;;;;;;;;;;;;;29.64;79.03;98400.00;4830068;29;20358;-70
2022/06/19 11:09:08;;;;;;;;;;;;;;;29.75;80.91;98384.81;4826309;29;20033;-69
2022/06/19 11:11:38;;;;;;;;;;;;;;;29.80;86.09;98389.81;4827717;29;19958;-69
2022/06/19 11:14:07;;;;;;;;;;;;;;;29.80;86.18;98384.06;4830737;29;20449;-70
2022/06/19 11:16:50;;;;;;;;;;;;;;;29.82;79.42;98378.53;4830489;29;19970;-70
2022/06/19 11:19:34;;;;;;;;;;;;;;;29.87;90.86;98377.75;4827118;29;19956;-72
2022/06/19 11:22:07;;;;;;;;;;;;;;;29.90;74.99;98383.25;4830298;29;19957;-71
2022/06/19 11:24:36;;;;;;;;;;;;;;;29.90;75.69;98376.69;4829784;29;19962;-71
2022/06/19 11:27:04;;;;;;;;;;;;;;;29.75;71.30;98379.06;4828004;29;20237;-71
2022/06/19 11:29:31;;;;;;;;;;;;;;;29.61;75.97;98386.69;4828557;29;20251;-71
2022/06/19 11:32:02;;;;;;;;;;;;;;;29.71;78.09;98381.44;4829750;29;19949;-71
2022/06/19 11:34:46;;;;;;;;;;;;;;;29.49;74.97;98375.69;4833440;29;19948;-71
2022/06/19 11:37:16;;;;;;;;;;;;;;;29.59;74.21;98374.09;4830638;29;19947;-71
2022/06/19 11:39:45;;;;;;;;;;;;;;;29.76;72.16;98372.75;4830454;29;19952;-71
2022/06/19 11:42:31;;;;;;;;;;;;;;;29.83;78.34;98371.47;4830526;29;19949;-71
2022/06/19 11:44:58;;;;;;;;;;;;;;;29.99;72.20;98364.09;4829896;29;20017;-71
2022/06/19 11:47:46;;;;;;;;;;;;;;;30.06;75.70;98360.66;4827772;29;20034;-71
2022/06/19 11:50:19;;;;;;;;;;;;;;;30.03;78.64;98362.50;4829339;29;19955;-71
2022/06/19 11:52:52;;;;;;;;;;;;;;;30.01;72.64;98356.47;4830773;29;19948;-64
2022/06/19 11:55:28;;;;;;;;;;;;;;;30.12;83.46;98362.22;4829383;29;20325;-71
2022/06/19 11:57:57;;;;;;;;;;;;;;;30.21;71.30;98364.00;4829668;29;19951;-71
2022/06/19 12:00:32;;;;;;;;;;;;;;;29.91;79.65;98352.31;4832710;29;19949;-72
2022/06/19 12:03:04;;;;;;;;;;;;;;;30.09;83.40;98353.84;4829987;29;19954;-71
2022/06/19 12:05:33;;;;;;;;;;;;;;;30.20;75.64;98348.03;4830361;29;19960;-71
2022/06/19 12:08:27;;;;;;;;;;;;;;;30.27;65.25;98351.16;4836008;29;19984;-71
2022/06/19 12:10:59;;;;;;;;;;;;;;;30.17;69.41;98347.00;4839185;29;19948;-70
2022/06/19 12:13:28;;;;;;;;;;;;;;;30.03;68.60;98339.41;4835065;29;19955;-71
2022/06/19 12:15:59;;;;;;;;;;;;;;;30.03;89.44;98327.13;4835378;29;19953;-70
2022/06/19 12:18:27;;;;;;;;;;;;;;;29.96;72.41;98330.56;4830363;29;19973;-71
2022/06/19 12:20:59;;;;;;;;;;;;;;;30.11;72.38;98325.25;4813231;29;20334;-71
2022/06/19 12:23:28;;;;;;;;;;;;;;;30.26;74.62;98325.72;4822040;29;19969;-71
2022/06/19 12:25:58;;;;;;;;;;;;;;;30.26;77.19;98328.59;4822869;29;19954;-71
2022/06/19 12:28:28;;;;;;;;;;;;;;;30.11;75.23;98328.13;4830238;29;19957;-71
2022/06/19 12:31:11;;;;;;;;;;;;;;;30.16;69.39;98330.19;4830206;29;19957;-71
2022/06/19 12:33:57;;;;;;;;;;;;;;;30.07;69.87;98328.41;4829701;29;19952;-71
2022/06/19 12:36:30;;;;;;;;;;;;;;;30.16;79.15;98318.66;4829496;29;19954;-71
2022/06/19 12:38:57;;;;;;;;;;;;;;;30.13;73.72;98320.50;4834530;29;19951;-70
2022/06/19 12:41:45;;;;;;;;;;;;;;;30.13;70.81;98313.94;4832569;29;19957;-71
2022/06/19 12:44:21;;;;;;;;;;;;;;;30.24;68.19;98325.47;4835722;29;20254;-71
2022/06/19 12:47:07;;;;;;;;;;;;;;;30.16;69.96;98313.69;4838810;29;19945;-71
2022/06/19 12:49:50;;;;;;;;;;;;;;;30.26;69.16;98311.28;4831377;29;19948;-71
2022/06/19 12:52:29;;;;;;;;;;;;;;;30.28;84.44;98302.88;4830563;29;19949;-71
2022/06/19 12:54:59;;;;;;;;;;;;;;;30.30;74.10;98303.91;4835080;29;19956;-71
2022/06/19 12:57:32;;;;;;;;;;;;;;;30.39;73.73;98299.97;4828921;29;19949;-70
2022/06/19 13:00:04;;;;;;;;;;;;;;;30.43;70.54;98298.38;4834485;29;19965;-70
2022/06/19 13:02:31;;;;;;;;;;;;;;;30.39;77.54;98291.31;4828107;29;19956;-70
2022/06/19 13:05:19;;;;;;;;;;;;;;;30.39;71.38;98288.44;4828202;29;20356;-71
2022/06/19 13:07:52;;;;;;;;;;;;;;;30.37;76.53;98282.41;4827162;29;20330;-71
2022/06/19 13:10:23;;;;;;;;;;;;;;;30.60;77.54;98285.94;4825221;29;19948;-71
2022/06/19 13:12:53;;;;;;;;;;;;;;;30.63;70.59;98284.88;4823062;29;20234;-71
2022/06/19 13:15:23;;;;;;;;;;;;;;;30.61;71.95;98284.63;4827010;29;19949;-70
2022/06/19 13:17:50;;;;;;;;;;;;;;;30.60;66.87;98286.72;4829577;29;19976;-70
2022/06/19 13:20:36;;;;;;;;;;;;;;;30.60;69.69;98283.06;4828691;29;19951;-70
2022/06/19 13:23:23;;;;;;;;;;;;;;;30.45;82.69;98272.66;4827482;29;19954;-70
2022/06/19 13:25:53;;;;;;;;;;;;;;;30.48;70.99;98279.47;4828743;29;19973;-70
2022/06/19 13:28:20;;;;;;;;;;;;;;;30.60;71.38;98277.28;4829291;29;19949;-70
2022/06/19 13:30:55;;;;;;;;;;;;;;;30.49;67.40;98272.38;4830014;29;19946;-71
2022/06/19 13:33:22;;;;;;;;;;;;;;;30.53;65.04;98273.66;4829135;29;19954;-71
2022/06/19 13:35:58;;;;;;;;;;;;;;;30.56;68.11;98277.59;4828668;29;19947;-70
2022/06/19 13:38:43;;;;;;;;;;;;;;;30.57;66.09;98270.47;4830133;29;19946;-71
2022/06/19 13:41:23;;;;;;;;;;;;;;;30.63;69.60;98265.47;4827487;29;20348;-71
2022/06/19 13:43:59;;;;;;;;;;;;;;;30.62;76.16;98271.78;4828293;29;20223;-71
2022/06/19 13:46:29;;;;;;;;;;;;;;;30.66;67.22;98264.41;4828254;29;19980;-71
2022/06/19 13:49:01;;;;;;;;;;;;;;;30.67;66.83;98265.16;4826359;29;19953;-71
2022/06/19 13:51:35;;;;;;;;;;;;;;;30.57;67.41;98261.06;4827436;29;20440;-71
2022/06/19 13:54:05;;;;;;;;;;;;;;;30.49;67.83;98257.94;4828017;29;19950;-71
2022/06/19 13:56:32;;;;;;;;;;;;;;;30.55;69.83;98252.91;4825480;29;19953;-71
2022/06/19 13:59:21;;;;;;;;;;;;;;;30.79;65.02;98247.22;4827835;29;19956;-71
2022/06/19 14:01:48;;;;;;;;;;;;;;;30.80;68.22;98248.00;4827471;29;20336;-71
2022/06/19 14:07:05;;;;;;;;;;;;;;;30.65;77.87;98248.38;4829842;29;19956;-71
2022/06/19 14:09:58;;;;;;;;;;;;;;;30.48;70.03;98248.50;4840001;29;19984;-72
2022/06/19 14:12:34;;;;;;;;;;;;;;;30.50;74.55;98242.97;4826877;29;20240;-71
2022/06/19 14:15:22;;;;;;;;;;;;;;;30.69;70.52;98237.31;4828333;29;19961;-71
2022/06/19 14:18:08;;;;;;;;;;;;;;;30.68;69.00;98234.97;4827937;29;19969;-71
2022/06/19 14:20:41;;;;;;;;;;;;;;;30.61;70.25;98236.34;4828786;29;19949;-71
2022/06/19 14:23:14;;;;;;;;;;;;;;;30.76;74.92;98227.31;4828285;29;20011;-71
2022/06/19 14:25:54;;;;;;;;;;;;;;;30.74;72.04;98227.06;4833728;29;19966;-71
2022/06/19 14:28:22;;;;;;;;;;;;;;;30.54;63.22;98228.28;4828632;29;20243;-71
2022/06/19 14:30:53;;;;;;;;;;;;;;;30.58;62.87;98222.19;4831158;29;19961;-71
2022/06/19 14:33:29;;;;;;;;;;;;;;;30.60;65.91;98220.34;4827224;29;19962;-71
2022/06/19 14:36:23;;;;;;;;;;;;;;;30.55;66.37;98227.72;4833133;29;20219;-71
2022/06/19 14:38:56;;;;;;;;;;;;;;;30.56;65.35;98216.97;4825983;29;20375;-71
2022/06/19 14:41:24;;;;;;;;;;;;;;;30.69;70.34;98220.00;4829159;29;20216;-71
2022/06/19 14:43:57;;;;;;;;;;;;;;;30.64;62.99;98217.19;4828692;29;20331;-71
2022/06/19 14:46:24;;;;;;;;;;;;;;;30.57;68.27;98212.00;4828949;29;19968;-71
2022/06/19 14:48:52;;;;;;;;;;;;;;;30.58;67.53;98213.53;4828685;29;19953;-71
2022/06/19 14:51:22;;;;;;;;;;;;;;;30.66;72.86;98209.56;4828708;29;19961;-71
2022/06/19 14:54:00;;;;;;;;;;;;;;;30.61;73.00;98210.38;4830482;29;19949;-71
2022/06/19 14:56:33;;;;;;;;;;;;;;;30.52;66.07;98205.69;4832263;29;19949;-71
2022/06/19 14:59:01;;;;;;;;;;;;;;;30.53;78.54;98210.16;4830100;29;19956;-71
2022/06/19 15:01:31;;;;;;;;;;;;;;;30.51;71.45;98200.47;4831025;29;19947;-71
2022/06/19 15:04:02;;;;;;;;;;;;;;;30.45;64.35;98209.16;4830008;29;19976;-71
2022/06/19 15:06:38;;;;;;;;;;;;;;;30.42;71.53;98203.69;4835558;29;19965;-71
2022/06/19 15:09:08;;;;;;;;;;;;;;;30.37;66.24;98196.63;4830982;29;19948;-71
2022/06/19 15:11:37;;;;;;;;;;;;;;;30.37;67.09;98202.38;4828746;29;20630;-71
2022/06/19 15:14:22;;;;;;;;;;;;;;;30.42;71.36;98198.69;4826872;29;20228;-71
2022/06/19 15:16:54;;;;;;;;;;;;;;;30.41;76.76;98193.47;4828885;29;19971;-71
2022/06/19 15:19:41;;;;;;;;;;;;;;;30.36;68.35;98191.41;4829805;29;20207;-71
2022/06/19 15:22:28;;;;;;;;;;;;;;;30.35;70.53;98192.69;4832127;29;19947;-71
2022/06/19 15:24:55;;;;;;;;;;;;;;;30.33;69.75;98196.09;4836097;29;20224;-71
2022/06/19 15:27:25;;;;;;;;;;;;;;;30.35;67.68;98205.03;4842480;29;19953;-71
2022/06/19 15:29:55;;;;;;;;;;;;;;;30.33;68.35;98186.66;4832042;29;19964;-71
2022/06/19 15:32:23;;;;;;;;;;;;;;;30.46;68.43;98189.75;4829738;29;19957;-71
2022/06/19 15:34:55;;;;;;;;;;;;;;;30.41;69.46;98199.22;4821035;29;19958;-71
2022/06/19 15:37:37;;;;;;;;;;;;;;;30.38;70.62;98201.09;4835123;29;19949;-71
2022/06/19 15:40:17;;;;;;;;;;;;;;;30.39;67.69;98188.25;4827929;29;19946;-71
2022/06/19 15:43:15;;;;;;;;;;;;;;;30.30;71.43;98187.72;4829362;29;19946;-71
2022/06/19 15:46:00;;;;;;;;;;;;;;;30.31;67.49;98198.75;4828573;29;20366;-71
2022/06/19 15:48:27;;;;;;;;;;;;;;;30.23;72.75;98194.84;4828609;29;19947;-71
2022/06/19 15:51:06;;;;;;;;;;;;;;;30.20;68.81;98187.25;4827313;29;19953;-71
2022/06/19 15:53:37;;;;;;;;;;;;;;;30.18;71.38;98180.47;4826139;29;19948;-71
2022/06/19 15:56:14;;;;;;;;;;;;;;;30.11;71.89;98178.94;4830147;29;19949;-71
2022/06/19 15:58:45;;;;;;;;;;;;;;;30.12;70.76;98177.63;4828584;29;19953;-71
2022/06/19 16:01:15;;;;;;;;;;;;;;;30.08;71.74;98180.00;4831056;29;20250;-71
2022/06/19 16:03:47;;;;;;;;;;;;;;;30.07;68.99;98181.31;4831126;29;19957;-70
2022/06/19 16:06:16;;;;;;;;;;;;;;;30.10;69.64;98176.59;4832887;29;19971;-71
2022/06/19 16:08:52;;;;;;;;;;;;;;;30.04;73.13;98179.50;4841563;29;19963;-71
2022/06/19 16:11:26;;;;;;;;;;;;;;;30.09;70.70;98172.13;4822376;29;19956;-71
2022/06/19 16:14:01;;;;;;;;;;;;;;;29.96;67.97;98171.97;4834479;29;20207;-71
2022/06/19 16:16:32;;;;;;;;;;;;;;;29.98;69.90;98170.09;4833228;29;19950;-71
2022/06/19 16:19:01;;;;;;;;;;;;;;;29.99;71.44;98177.44;4835026;29;19964;-67
2022/06/19 16:21:30;;;;;;;;;;;;;;;29.93;76.76;98173.81;4829377;29;20266;-66
2022/06/19 16:23:58;;;;;;;;;;;;;;;29.86;75.63;98169.38;4830930;29;20374;-67
2022/06/19 16:26:28;;;;;;;;;;;;;;;29.87;75.99;98167.28;4826613;29;19972;-67
2022/06/19 16:28:57;;;;;;;;;;;;;;;29.79;72.30;98167.06;4832209;29;20247;-67
2022/06/19 16:31:26;;;;;;;;;;;;;;;29.72;77.61;98166.78;4829081;29;20204;-67
2022/06/19 16:33:56;;;;;;;;;;;;;;;29.61;72.86;98170.53;4829458;29;20246;-67
2022/06/19 16:45:11;;;;;;;;;;;;;;;29.51;73.64;98172.13;4814513;29;19954;-67
2022/06/19 16:47:39;;;;;;;;;;;;;;;29.39;74.66;98164.06;4824513;29;19952;-68
2022/06/19 16:50:07;;;;;;;;;;;;;;;29.47;71.54;98165.84;4827910;29;19956;-66
2022/06/19 16:52:36;;;;;;;;;;;;;;;29.43;75.49;98150.94;4828400;29;19950;-66
2022/06/19 16:55:23;;;;;;;;;;;;;;;29.33;74.64;98160.41;4839315;29;19960;-66
2022/06/19 16:57:57;;;;;;;;;;;;;;;29.32;75.27;98150.19;4840089;29;19955;-66
2022/06/19 17:00:27;;;;;;;;;;;;;;;29.46;73.03;98166.38;4835803;29;19956;-65
2022/06/19 17:03:09;;;;;;;;;;;;;;;29.44;71.43;98163.25;4827140;29;19947;-65
2022/06/19 17:05:40;;;;;;;;;;;;;;;29.35;74.25;98157.78;4830766;29;19976;-65
2022/06/19 17:10:55;;;;;;;;;;;;;;;29.29;75.14;98149.94;4827588;29;19952;-66
2022/06/19 17:13:24;;;;;;;;;;;;;;;29.20;75.67;98164.63;4828623;29;19952;-66
2022/06/19 17:15:53;;;;;;;;;;;;;;;29.19;70.65;98163.06;4828369;29;19964;-66
2022/06/19 17:18:21;;;;;;;;;;;;;;;29.06;73.03;98164.88;4831734;29;19973;-66
2022/06/19 17:20:49;;;;;;;;;;;;;;;29.00;78.24;98164.13;4828995;29;20254;-66
2022/06/19 17:23:16;;;;;;;;;;;;;;;28.92;71.71;98169.63;4826127;29;19965;-66
2022/06/19 17:25:45;;;;;;;;;;;;;;;28.89;79.63;98162.03;4827682;29;19969;-66
2022/06/19 17:28:13;;;;;;;;;;;;;;;28.88;73.83;98171.22;4828223;29;19949;-66
2022/06/19 17:30:45;;;;;;;;;;;;;;;28.79;74.15;98169.38;4828064;29;19955;-65
2022/06/19 17:33:25;;;;;;;;;;;;;;;28.75;77.88;98166.00;4827664;29;19949;-66
2022/06/19 17:35:56;;;;;;;;;;;;;;;28.74;77.11;98175.13;4828257;29;19956;-66
2022/06/19 17:38:38;;;;;;;;;;;;;;;28.75;76.45;98173.84;4825943;29;19956;-66
2022/06/19 17:41:06;;;;;;;;;;;;;;;28.62;77.83;98169.41;4826485;29;19950;-66
2022/06/19 17:43:35;;;;;;;;;;;;;;;28.61;73.30;98164.19;4826760;29;20247;-66
2022/06/19 17:46:11;;;;;;;;;;;;;;;28.57;77.34;98154.97;4826755;29;19994;-66
2022/06/19 17:48:40;;;;;;;;;;;;;;;28.48;76.85;98161.78;4825709;29;19960;-66
2022/06/19 17:51:22;;;;;;;;;;;;;;;28.46;75.98;98163.63;4827177;29;19949;-66
2022/06/19 17:53:50;;;;;;;;;;;;;;;28.43;78.29;98164.66;4827467;29;19964;-65
2022/06/19 17:56:18;;;;;;;;;;;;;;;28.29;80.57;98162.81;4827080;29;19952;-65
2022/06/19 17:58:50;;;;;;;;;;;;;;;28.34;76.97;98156.28;4827275;29;19956;-66
2022/06/19 18:01:18;;;;;;;;;;;;;;;28.31;78.01;98158.13;4826081;29;19949;-66
2022/06/19 18:03:50;;;;;;;;;;;;;;;28.23;78.24;98165.69;4826460;29;19950;-64
2022/06/19 18:06:18;;;;;;;;;;;;;;;28.19;78.91;98161.50;4826962;29;19963;-64
2022/06/19 18:08:50;;;;;;;;;;;;;;;28.17;78.92;98164.09;4827496;29;20376;-67
2022/06/19 18:11:28;;;;;;;;;;;;;;;28.11;78.64;98163.31;4827174;29;19957;-66
2022/06/19 18:13:59;;;;;;;;;;;;;;;28.08;80.31;98170.09;4825205;29;20403;-66
2022/06/19 18:19:12;;;;;;;;;;;;;;;28.04;78.76;98167.47;4827085;29;19960;-66
2022/06/19 18:21:44;;;;;;;;;;;;;;;27.94;79.40;98164.03;4827877;29;19977;-66
2022/06/19 18:24:16;;;;;;;;;;;;;;;27.99;79.33;98162.47;4827507;29;19965;-66
2022/06/19 18:26:48;;;;;;;;;;;;;;;27.94;82.26;98160.38;4827042;29;19976;-66
2022/06/19 18:29:23;;;;;;;;;;;;;;;27.90;80.56;98162.72;4826902;29;19952;-65
2022/06/19 18:31:56;;;;;;;;;;;;;;;27.80;81.12;98164.25;4824372;29;19947;-66
2022/06/19 18:34:23;;;;;;;;;;;;;;;27.81;81.17;98160.06;4827734;29;19952;-65
2022/06/19 18:36:52;;;;;;;;;;;;;;;27.86;81.88;98160.09;4827450;29;19951;-65
2022/06/19 18:39:21;;;;;;;;;;;;;;;27.71;83.30;98162.38;4824628;29;19950;-65
2022/06/19 18:41:49;;;;;;;;;;;;;;;27.76;83.61;98163.69;4832002;29;19965;-65
2022/06/19 18:44:17;;;;;;;;;;;;;;;27.67;84.06;98166.81;4837922;29;19951;-65
2022/06/19 18:46:45;;;;;;;;;;;;;;;27.59;84.78;98175.13;4832587;29;19968;-65
2022/06/19 18:49:33;;;;;;;;;;;;;;;27.55;85.39;98177.47;4819945;29;20070;-71
2022/06/19 18:52:01;;;;;;;;;;;;;;;27.40;86.73;98171.13;4830789;29;19959;-72
2022/06/19 18:54:31;;;;;;;;;;;;;;;27.41;87.47;98175.59;4830776;29;19954;-71
2022/06/19 18:56:58;;;;;;;;;;;;;;;27.33;88.74;98180.22;4826058;29;19949;-71
2022/06/19 18:59:26;;;;;;;;;;;;;;;27.22;89.03;98175.19;4818251;29;19948;-71
2022/06/19 19:01:54;;;;;;;;;;;;;;;27.26;88.27;98184.38;4844906;29;20310;-71
2022/06/19 19:04:22;;;;;;;;;;;;;;;27.15;89.07;98181.41;4832626;29;20312;-71
2022/06/19 19:06:51;;;;;;;;;;;;;;;27.18;88.94;98191.88;4832363;29;19969;-71
2022/06/19 19:09:21;;;;;;;;;;;;;;;27.14;89.47;98194.19;4823466;29;20250;-70
2022/06/19 19:11:49;;;;;;;;;;;;;;;27.08;90.31;98198.31;4818738;29;19949;-68
2022/06/19 19:14:17;;;;;;;;;;;;;;;27.02;91.04;98204.03;4831132;29;19954;-67
2022/06/19 19:16:44;;;;;;;;;;;;;;;26.97;90.92;98201.91;4830389;29;20261;-67
2022/06/19 19:19:20;;;;;;;;;;;;;;;27.03;90.24;98208.47;4830357;29;19960;-67
2022/06/19 19:21:48;;;;;;;;;;;;;;;26.92;91.62;98205.53;4830855;29;19947;-67
2022/06/19 19:24:15;;;;;;;;;;;;;;;26.88;92.03;98204.19;4830168;29;19958;-67
2022/06/19 19:26:45;;;;;;;;;;;;;;;26.82;92.55;98200.50;4830680;29;20349;-67
2022/06/19 19:29:16;;;;;;;;;;;;;;;26.74;93.29;98206.66;4830548;29;19957;-67
2022/06/19 19:31:45;;;;;;;;;;;;;;;26.70;93.80;98208.97;4831186;29;19952;-67
2022/06/19 19:34:12;;;;;;;;;;;;;;;26.72;93.72;98209.28;4830608;29;20216;-67
2022/06/19 19:36:41;;;;;;;;;;;;;;;26.64;94.21;98222.50;4829552;29;19965;-67
2022/06/19 19:39:19;;;;;;;;;;;;;;;26.60;94.63;98224.03;4830021;29;19959;-67
2022/06/19 19:41:47;;;;;;;;;;;;;;;26.57;95.18;98228.69;4829300;29;20357;-67
2022/06/19 19:44:14;;;;;;;;;;;;;;;26.48;96.46;98228.09;4821969;29;19956;-67
2022/06/19 19:46:50;;;;;;;;;;;;;;;26.32;97.67;98231.56;4830506;29;19966;-67
2022/06/19 19:49:22;;;;;;;;;;;;;;;26.26;98.38;98231.53;4829236;29;20246;-67
2022/06/19 19:51:51;;;;;;;;;;;;;;;26.28;97.50;98243.28;4828021;29;19956;-67